createdAt,value
2018-03-27T00:01:11.242Z,8.65
2018-03-27T00:03:13.042Z,8.63
2018-03-27T00:05:14.772Z,8.55
2018-03-27T00:07:16.512Z,8.65
2018-03-27T00:09:18.423Z,8.63
2018-03-27T00:11:20.382Z,8.58
2018-03-27T00:13:22.892Z,8.62
2018-03-27T00:15:25.302Z,8.60
2018-03-27T00:17:27.742Z,8.53
2018-03-27T00:19:29.313Z,8.33
2018-03-27T00:21:30.985Z,8.29
2018-03-27T00:23:32.953Z,8.10
2018-03-27T00:25:34.624Z,8.03
2018-03-27T00:27:36.556Z,7.90
2018-03-27T00:29:38.552Z,7.75
2018-03-27T00:31:40.260Z,7.62
2018-03-27T00:33:42.730Z,7.45
2018-03-27T00:35:45.259Z,7.55
2018-03-27T00:37:47.170Z,7.75
2018-03-27T00:39:49.622Z,7.89
2018-03-27T00:41:51.550Z,7.82
2018-03-27T00:43:54.108Z,7.85
2018-03-27T00:45:55.834Z,7.78
2018-03-27T00:47:57.512Z,7.71
2018-03-27T00:49:59.508Z,7.63
2018-03-27T00:52:01.789Z,7.53
2018-03-27T00:54:03.509Z,7.69
2018-03-27T00:56:05.180Z,7.81
2018-03-27T00:58:07.065Z,7.96
2018-03-27T01:00:08.819Z,7.89
2018-03-27T01:02:10.749Z,8.02
2018-03-27T01:04:12.391Z,7.99
2018-03-27T01:06:13.952Z,8.03
2018-03-27T01:08:15.576Z,8.03
2018-03-27T01:10:17.234Z,8.18
2018-03-27T01:12:18.974Z,8.28
2018-03-27T01:14:20.556Z,8.36
2018-03-27T01:16:22.324Z,8.32
2018-03-27T01:18:23.922Z,8.36
2018-03-27T01:20:25.949Z,8.33
2018-03-27T01:22:27.602Z,8.26
2018-03-27T01:24:29.222Z,8.33
2018-03-27T01:26:30.947Z,8.40
2018-03-27T01:28:32.989Z,8.11
2018-03-27T01:30:35.353Z,8.08
2018-03-27T01:32:37.333Z,7.94
2018-03-27T01:34:38.920Z,7.85
2018-03-27T01:36:40.879Z,7.92
2018-03-27T01:38:42.913Z,7.77
2018-03-27T01:40:45.306Z,7.90
2018-03-27T01:42:46.983Z,7.89
2018-03-27T01:44:48.640Z,7.89
2018-03-27T01:46:50.268Z,7.85
2018-03-27T01:48:51.923Z,7.79
2018-03-27T01:50:53.917Z,7.59
2018-03-27T01:52:56.071Z,7.40
2018-03-27T01:54:57.669Z,7.41
2018-03-27T01:56:59.493Z,7.41
2018-03-27T01:59:01.200Z,7.40
2018-03-27T02:01:03.271Z,7.42
2018-03-27T02:03:05.427Z,7.50
2018-03-27T02:05:07.152Z,7.67
2018-03-27T02:07:09.725Z,7.82
2018-03-27T02:09:11.317Z,7.89
2018-03-27T02:11:13.791Z,7.94
2018-03-27T02:13:15.485Z,8.07
2018-03-27T02:15:17.132Z,7.93
2018-03-27T02:17:18.776Z,7.87
2018-03-27T02:19:21.276Z,8.00
2018-03-27T02:21:22.924Z,7.92
2018-03-27T02:23:25.463Z,8.03
2018-03-27T02:25:27.548Z,7.99
2018-03-27T02:27:29.311Z,8.07
2018-03-27T02:29:31.334Z,8.02
2018-03-27T02:31:33.133Z,8.14
2018-03-27T02:33:35.153Z,8.17
2018-03-27T02:35:36.817Z,8.17
2018-03-27T02:37:38.775Z,8.07
2018-03-27T02:39:41.331Z,8.07
2018-03-27T02:41:42.926Z,8.07
2018-03-27T02:43:44.707Z,8.00
2018-03-27T02:45:46.700Z,8.03
2018-03-27T02:47:48.313Z,8.04
2018-03-27T02:49:49.898Z,8.00
2018-03-27T02:51:51.913Z,7.99
2018-03-27T02:53:53.715Z,8.02
2018-03-27T02:55:55.639Z,7.96
2018-03-27T02:57:57.642Z,7.97
2018-03-27T02:59:59.542Z,7.82
2018-03-27T03:02:01.197Z,7.82
2018-03-27T03:04:03.828Z,7.78
2018-03-27T03:06:06.391Z,7.79
2018-03-27T03:08:08.246Z,7.72
2018-03-27T03:10:10.183Z,7.67
2018-03-27T03:12:11.909Z,7.63
2018-03-27T03:14:13.466Z,7.60
2018-03-27T03:16:15.144Z,7.45
2018-03-27T03:18:16.817Z,7.49
2018-03-27T03:20:18.380Z,7.44
2018-03-27T03:22:20.029Z,7.42
2018-03-27T03:24:21.898Z,7.45
2018-03-27T03:26:23.956Z,7.42
2018-03-27T03:28:25.618Z,7.45
2018-03-27T03:30:27.232Z,7.35
2018-03-27T03:32:28.923Z,7.35
2018-03-27T03:34:31.105Z,7.41
2018-03-27T03:36:32.792Z,7.29
2018-03-27T03:38:34.486Z,7.32
2018-03-27T03:40:36.143Z,7.26
2018-03-27T03:42:37.788Z,7.26
2018-03-27T03:44:39.811Z,7.27
2018-03-27T03:46:41.460Z,7.23
2018-03-27T03:48:43.372Z,7.24
2018-03-27T03:50:45.299Z,7.27
2018-03-27T03:52:47.137Z,7.27
2018-03-27T03:54:49.284Z,7.31
2018-03-27T03:56:50.754Z,7.13
2018-03-27T03:58:52.581Z,7.09
2018-03-27T04:00:54.385Z,7.08
2018-03-27T04:02:55.969Z,7.02
2018-03-27T04:04:58.015Z,7.04
2018-03-27T04:06:59.581Z,7.04
2018-03-27T04:09:01.612Z,6.94
2018-03-27T04:11:03.436Z,7.02
2018-03-27T04:13:05.625Z,6.94
2018-03-27T04:15:07.569Z,6.91
2018-03-27T04:17:09.358Z,6.91
2018-03-27T04:19:10.932Z,6.97
2018-03-27T04:21:12.944Z,6.90
2018-03-27T04:23:14.564Z,6.87
2018-03-27T04:25:16.595Z,6.90
2018-03-27T04:27:18.640Z,6.91
2018-03-27T04:29:20.245Z,6.77
2018-03-27T04:31:22.421Z,6.71
2018-03-27T04:33:24.044Z,6.81
2018-03-27T04:35:25.949Z,6.73
2018-03-27T04:37:28.158Z,6.79
2018-03-27T04:39:30.309Z,6.81
2018-03-27T04:41:32.138Z,6.73
2018-03-27T04:43:33.783Z,6.76
2018-03-27T04:45:35.478Z,6.71
2018-03-27T04:47:37.174Z,6.72
2018-03-27T04:49:39.115Z,6.72
2018-03-27T04:51:40.730Z,6.69
2018-03-27T04:53:42.402Z,6.69
2018-03-27T04:55:43.983Z,6.66
2018-03-27T04:57:46.117Z,6.72
2018-03-27T04:59:47.969Z,6.73
2018-03-27T05:01:49.972Z,6.66
2018-03-27T05:03:52.948Z,6.62
2018-03-27T05:05:54.890Z,6.63
2018-03-27T05:07:56.907Z,6.59
2018-03-27T05:09:58.524Z,6.62
2018-03-27T05:12:00.558Z,6.59
2018-03-27T05:14:02.614Z,6.69
2018-03-27T05:16:04.319Z,6.73
2018-03-27T05:18:06.205Z,6.73
2018-03-27T05:20:07.905Z,6.77
2018-03-27T05:22:10.074Z,6.77
2018-03-27T05:24:11.883Z,6.76
2018-03-27T05:26:13.533Z,6.72
2018-03-27T05:28:14.969Z,6.68
2018-03-27T05:30:16.564Z,6.63
2018-03-27T05:32:18.573Z,6.68
2018-03-27T05:34:20.154Z,6.66
2018-03-27T05:36:22.164Z,6.62
2018-03-27T05:38:23.735Z,6.56
2018-03-27T05:40:25.769Z,6.58
2018-03-27T05:42:27.920Z,6.59
2018-03-27T05:44:29.951Z,6.61
2018-03-27T05:46:32.135Z,6.66
2018-03-27T05:48:33.717Z,6.68
2018-03-27T05:50:35.386Z,6.72
2018-03-27T05:52:37.505Z,6.69
2018-03-27T05:54:39.487Z,6.77
2018-03-27T05:56:41.504Z,6.77
2018-03-27T05:58:43.797Z,6.79
2018-03-27T06:00:45.878Z,6.86
2018-03-27T06:02:47.486Z,6.89
2018-03-27T06:04:49.106Z,6.94
2018-03-27T06:06:51.312Z,7.05
2018-03-27T06:08:53.223Z,7.08
2018-03-27T06:10:54.914Z,7.09
2018-03-27T06:12:56.935Z,7.15
2018-03-27T06:14:58.537Z,7.17
2018-03-27T06:17:00.098Z,7.05
2018-03-27T06:19:01.750Z,6.87
2018-03-27T06:21:03.771Z,6.77
2018-03-27T06:23:05.396Z,6.80
2018-03-27T06:25:07.331Z,6.86
2018-03-27T06:27:09.210Z,6.97
2018-03-27T06:29:11.032Z,6.90
2018-03-27T06:31:13.085Z,6.97
2018-03-27T06:33:14.866Z,7.05
2018-03-27T06:35:16.509Z,7.09
2018-03-27T06:37:18.157Z,7.27
2018-03-27T06:39:19.967Z,7.29
2018-03-27T06:41:21.881Z,7.38
2018-03-27T06:43:23.756Z,7.35
2018-03-27T06:45:25.404Z,7.34
2018-03-27T06:47:26.990Z,7.32
2018-03-27T06:49:28.900Z,7.13
2018-03-27T06:51:30.585Z,7.05
2018-03-27T06:53:32.530Z,7.13
2018-03-27T06:55:34.464Z,7.24
2018-03-27T06:57:36.612Z,7.38
2018-03-27T06:59:38.366Z,7.49
2018-03-27T07:01:40.262Z,7.56
2018-03-27T07:03:42.560Z,7.71
2018-03-27T07:05:44.668Z,7.81
2018-03-27T07:07:46.392Z,7.81
2018-03-27T07:09:48.673Z,7.42
2018-03-27T07:11:50.268Z,7.41
2018-03-27T07:13:52.563Z,7.34
2018-03-27T07:15:54.167Z,7.35
2018-03-27T07:17:55.888Z,7.55
2018-03-27T07:19:57.590Z,7.52
2018-03-27T07:21:59.941Z,7.41
2018-03-27T07:24:01.701Z,7.47
2018-03-27T07:26:03.435Z,7.32
2018-03-27T07:28:05.162Z,7.35
2018-03-27T07:30:06.878Z,7.53
2018-03-27T07:32:09.252Z,7.63
2018-03-27T07:34:11.558Z,7.75
2018-03-27T07:36:13.265Z,7.84
2018-03-27T07:38:14.855Z,7.93
2018-03-27T07:40:16.608Z,8.03
2018-03-27T07:42:18.186Z,8.10
2018-03-27T07:44:19.764Z,8.07
2018-03-27T07:46:21.645Z,8.15
2018-03-27T07:48:23.953Z,8.17
2018-03-27T07:50:26.124Z,8.18
2018-03-27T07:52:27.790Z,8.14
2018-03-27T07:54:29.468Z,8.03
2018-03-27T07:56:30.941Z,8.12
2018-03-27T07:58:32.600Z,7.90
2018-03-27T08:00:34.418Z,7.90
2018-03-27T08:02:36.117Z,7.96
2018-03-27T08:04:37.773Z,7.96
2018-03-27T08:06:39.506Z,8.03
2018-03-27T08:08:41.161Z,8.02
2018-03-27T08:10:42.933Z,8.17
2018-03-27T08:12:49.157Z,8.21
2018-03-27T08:14:50.453Z,8.60
2018-03-27T08:16:52.167Z,8.75
2018-03-27T08:18:54.859Z,8.71
2018-03-27T08:20:56.366Z,8.73
2018-03-27T08:22:58.129Z,8.66
2018-03-27T08:24:59.863Z,8.84
2018-03-27T08:27:01.333Z,8.87
2018-03-27T08:29:03.387Z,8.76
2018-03-27T08:31:07.365Z,8.91
2018-03-27T08:33:09.302Z,9.04
2018-03-27T08:35:11.705Z,9.24
2018-03-27T08:37:13.471Z,9.39
2018-03-27T08:39:15.344Z,9.43
2018-03-27T08:41:17.275Z,9.63
2018-03-27T08:43:19.044Z,9.91
2018-03-27T08:45:20.511Z,10.01
2018-03-27T08:47:22.024Z,10.07
2018-03-27T08:49:23.533Z,10.37
2018-03-27T08:51:25.140Z,10.34
2018-03-27T08:53:27.007Z,10.34
2018-03-27T08:55:28.705Z,10.37
2018-03-27T08:57:30.186Z,10.42
2018-03-27T08:59:31.735Z,10.60
2018-03-27T09:01:33.183Z,10.81
2018-03-27T09:03:34.774Z,11.17
2018-03-27T09:05:36.409Z,11.14
2018-03-27T09:07:38.484Z,11.10
2018-03-27T09:09:40.012Z,10.81
2018-03-27T09:11:41.606Z,10.68
2018-03-27T09:13:43.269Z,10.59
2018-03-27T09:15:45.013Z,10.43
2018-03-27T09:17:46.835Z,10.42
2018-03-27T09:19:48.413Z,10.33
2018-03-27T09:21:50.168Z,10.10
2018-03-27T09:23:51.624Z,10.26
2018-03-27T09:25:53.200Z,10.62
2018-03-27T09:27:54.737Z,10.56
2018-03-27T09:29:56.348Z,10.55
2018-03-27T09:31:57.789Z,10.74
2018-03-27T09:33:59.525Z,10.84
2018-03-27T09:36:01.245Z,10.83
2018-03-27T09:38:02.796Z,10.78
2018-03-27T09:40:04.290Z,10.83
2018-03-27T09:42:05.808Z,10.88
2018-03-27T09:44:07.316Z,11.03
2018-03-27T09:46:08.863Z,10.91
2018-03-27T09:48:10.584Z,10.99
2018-03-27T09:50:12.092Z,10.95
2018-03-27T09:52:13.597Z,11.03
2018-03-27T09:54:15.091Z,11.13
2018-03-27T09:56:16.548Z,11.27
2018-03-27T09:58:18.104Z,11.28
2018-03-27T10:00:19.714Z,11.34
2018-03-27T10:02:21.221Z,11.38
2018-03-27T10:04:22.858Z,11.74
2018-03-27T10:06:24.517Z,11.99
2018-03-27T10:08:25.996Z,11.99
2018-03-27T10:10:27.515Z,12.16
2018-03-27T10:12:28.996Z,12.31
2018-03-27T10:14:30.417Z,12.39
2018-03-27T10:16:31.859Z,12.69
2018-03-27T10:18:33.329Z,12.60
2018-03-27T10:20:34.697Z,12.27
2018-03-27T10:22:36.122Z,12.12
2018-03-27T10:24:38.289Z,12.38
2018-03-27T10:26:39.704Z,12.39
2018-03-27T10:28:41.177Z,12.59
2018-03-27T10:30:42.846Z,12.52
2018-03-27T10:32:44.357Z,12.63
2018-03-27T10:34:46.046Z,12.41
2018-03-27T10:36:47.643Z,12.09
2018-03-27T10:38:49.114Z,12.15
2018-03-27T10:40:50.601Z,12.19
2018-03-27T10:42:52.233Z,12.20
2018-03-27T10:44:53.925Z,12.16
2018-03-27T10:46:55.447Z,12.09
2018-03-27T10:48:56.901Z,11.75
2018-03-27T10:50:58.421Z,11.41
2018-03-27T10:52:59.869Z,11.49
2018-03-27T10:55:01.369Z,11.65
2018-03-27T10:57:02.789Z,11.87
2018-03-27T10:59:04.270Z,11.89
2018-03-27T11:01:05.691Z,11.90
2018-03-27T11:03:07.112Z,11.85
2018-03-27T11:05:08.534Z,12.01
2018-03-27T11:07:09.959Z,12.08
2018-03-27T11:09:11.378Z,11.94
2018-03-27T11:11:12.798Z,12.09
2018-03-27T11:13:14.227Z,12.29
2018-03-27T11:15:15.642Z,12.38
2018-03-27T11:17:17.067Z,12.52
2018-03-27T11:19:18.497Z,12.51
2018-03-27T11:21:19.914Z,12.62
2018-03-27T11:23:21.378Z,12.79
2018-03-27T11:25:22.773Z,12.69
2018-03-27T11:27:24.206Z,12.75
2018-03-27T11:29:25.664Z,12.88
2018-03-27T11:31:27.055Z,12.75
2018-03-27T11:33:28.498Z,12.41
2018-03-27T11:35:29.917Z,12.41
2018-03-27T11:37:31.404Z,12.46
2018-03-27T11:39:32.825Z,12.34
2018-03-27T11:41:34.247Z,12.15
2018-03-27T11:43:35.667Z,12.20
2018-03-27T11:45:37.093Z,12.24
2018-03-27T11:47:38.510Z,12.34
2018-03-27T11:49:39.936Z,12.46
2018-03-27T11:51:41.356Z,12.39
2018-03-27T11:53:42.786Z,12.42
2018-03-27T11:55:44.205Z,12.33
2018-03-27T11:57:45.630Z,12.39
2018-03-27T11:59:47.050Z,12.27
2018-03-27T12:01:48.473Z,12.60
2018-03-27T12:03:49.898Z,12.60
2018-03-27T12:05:51.321Z,12.49
2018-03-27T12:07:52.745Z,12.60
2018-03-27T12:09:54.165Z,12.81
2018-03-27T12:11:55.584Z,12.74
2018-03-27T12:13:57.013Z,12.71
2018-03-27T12:15:58.435Z,12.67
2018-03-27T12:17:59.904Z,12.66
2018-03-27T12:20:01.348Z,12.77
2018-03-27T12:22:02.813Z,12.77
2018-03-27T12:24:04.364Z,12.82
2018-03-27T12:26:05.831Z,12.67
2018-03-27T12:28:07.253Z,12.64
2018-03-27T12:30:08.674Z,12.64
2018-03-27T12:32:10.095Z,12.60
2018-03-27T12:34:11.514Z,12.52
2018-03-27T12:36:12.968Z,12.29
2018-03-27T12:38:14.360Z,12.15
2018-03-27T12:40:15.782Z,12.02
2018-03-27T12:42:17.248Z,11.94
2018-03-27T12:44:18.633Z,12.02
2018-03-27T12:46:20.075Z,11.96
2018-03-27T12:48:21.508Z,12.02
2018-03-27T12:50:22.930Z,11.99
2018-03-27T12:52:24.361Z,12.13
2018-03-27T12:54:25.796Z,12.26
2018-03-27T12:56:27.209Z,12.30
2018-03-27T12:58:28.693Z,12.38
2018-03-27T13:00:30.318Z,12.33
2018-03-27T13:02:31.931Z,12.38
2018-03-27T13:04:33.405Z,12.31
2018-03-27T13:06:34.827Z,12.30
2018-03-27T13:08:36.252Z,12.11
2018-03-27T13:10:37.735Z,12.16
2018-03-27T13:12:39.259Z,12.08
2018-03-27T13:14:40.792Z,12.02
2018-03-27T13:16:42.305Z,12.12
2018-03-27T13:18:43.731Z,12.19
2018-03-27T13:20:45.153Z,12.31
2018-03-27T13:22:46.575Z,12.39
2018-03-27T13:24:47.994Z,12.13
2018-03-27T13:26:49.414Z,12.21
2018-03-27T13:28:50.844Z,12.12
2018-03-27T13:30:52.262Z,12.16
2018-03-27T13:32:53.683Z,12.11
2018-03-27T13:34:55.103Z,12.30
2018-03-27T13:36:56.524Z,12.30
2018-03-27T13:38:57.957Z,12.19
2018-03-27T13:40:59.365Z,12.34
2018-03-27T13:43:00.783Z,12.15
2018-03-27T13:45:02.228Z,12.12
2018-03-27T13:47:03.691Z,12.05
2018-03-27T13:49:05.253Z,11.96
2018-03-27T13:51:06.677Z,11.93
2018-03-27T13:53:08.101Z,11.96
2018-03-27T13:55:09.512Z,11.93
2018-03-27T13:57:10.924Z,12.04
2018-03-27T13:59:12.350Z,12.04
2018-03-27T14:01:13.778Z,12.08
2018-03-27T14:03:15.293Z,12.09
2018-03-27T14:05:16.720Z,12.12
2018-03-27T14:07:18.508Z,12.21
2018-03-27T14:09:19.977Z,12.15
2018-03-27T14:11:21.400Z,12.13
2018-03-27T14:13:22.819Z,12.09
2018-03-27T14:15:24.359Z,12.21
2018-03-27T14:17:26.081Z,12.05
2018-03-27T14:19:27.605Z,12.20
2018-03-27T14:21:29.123Z,12.27
2018-03-27T14:23:30.547Z,12.15
2018-03-27T14:25:31.994Z,12.08
2018-03-27T14:27:33.501Z,11.99
2018-03-27T14:29:34.988Z,12.04
2018-03-27T14:31:36.492Z,11.96
2018-03-27T14:33:37.959Z,11.85
2018-03-27T14:35:39.413Z,11.96
2018-03-27T14:37:40.874Z,11.94
2018-03-27T14:39:42.684Z,12.04
2018-03-27T14:41:44.162Z,12.05
2018-03-27T14:43:45.709Z,12.01
2018-03-27T14:45:47.505Z,12.11
2018-03-27T14:47:49.160Z,12.06
2018-03-27T14:49:50.622Z,12.12
2018-03-27T14:51:52.299Z,12.05
2018-03-27T14:53:53.756Z,12.05
2018-03-27T14:55:55.269Z,12.08
2018-03-27T14:57:56.817Z,12.02
2018-03-27T14:59:58.357Z,11.65
2018-03-27T15:02:00.134Z,11.31
2018-03-27T15:04:01.618Z,11.38
2018-03-27T15:06:03.144Z,11.38
2018-03-27T15:08:04.855Z,11.47
2018-03-27T15:10:06.480Z,11.62
2018-03-27T15:12:08.134Z,11.65
2018-03-27T15:14:09.570Z,11.77
2018-03-27T15:16:11.046Z,11.87
2018-03-27T15:18:12.607Z,12.05
2018-03-27T15:20:14.394Z,11.87
2018-03-27T15:22:16.223Z,11.87
2018-03-27T15:24:18.066Z,11.83
2018-03-27T15:26:19.504Z,11.46
2018-03-27T15:28:20.953Z,11.34
2018-03-27T15:30:22.448Z,11.31
2018-03-27T15:32:23.997Z,11.35
2018-03-27T15:34:25.717Z,11.43
2018-03-27T15:36:27.401Z,11.34
2018-03-27T15:38:28.848Z,11.32
2018-03-27T15:40:30.330Z,11.13
2018-03-27T15:42:32.040Z,10.95
2018-03-27T15:44:33.720Z,10.88
2018-03-27T15:46:35.479Z,10.83
2018-03-27T15:48:37.313Z,10.73
2018-03-27T15:50:38.802Z,10.77
2018-03-27T15:52:40.280Z,10.94
2018-03-27T15:54:41.822Z,11.02
2018-03-27T15:56:43.576Z,11.17
2018-03-27T15:58:45.062Z,11.19
2018-03-27T16:00:46.803Z,11.21
2018-03-27T16:02:48.359Z,11.17
2018-03-27T16:04:50.263Z,11.32
2018-03-27T16:06:52.290Z,11.25
2018-03-27T16:08:54.077Z,11.24
2018-03-27T16:10:55.920Z,11.19
2018-03-27T16:12:57.386Z,11.20
2018-03-27T16:14:59.096Z,11.02
2018-03-27T16:17:00.904Z,11.03
2018-03-27T16:19:02.600Z,11.06
2018-03-27T16:21:04.045Z,11.16
2018-03-27T16:23:05.899Z,11.25
2018-03-27T16:25:07.637Z,11.27
2018-03-27T16:27:09.288Z,11.27
2018-03-27T16:29:10.790Z,11.19
2018-03-27T16:31:12.674Z,11.21
2018-03-27T16:33:14.241Z,11.21
2018-03-27T16:35:15.735Z,11.11
2018-03-27T16:37:17.213Z,11.17
2018-03-27T16:39:18.660Z,11.19
2018-03-27T16:41:20.081Z,11.19
2018-03-27T16:43:21.501Z,11.21
2018-03-27T16:45:23.081Z,11.25
2018-03-27T16:47:24.497Z,11.32
2018-03-27T16:49:26.008Z,11.39
2018-03-27T16:51:27.454Z,11.41
2018-03-27T16:53:28.870Z,11.46
2018-03-27T16:55:30.283Z,11.32
2018-03-27T16:57:31.702Z,11.34
2018-03-27T16:59:33.116Z,11.21
2018-03-27T17:01:34.532Z,11.31
2018-03-27T17:03:36.560Z,11.31
2018-03-27T17:05:38.068Z,11.46
2018-03-27T17:07:39.543Z,11.53
2018-03-27T17:09:41.048Z,11.59
2018-03-27T17:11:42.986Z,11.70
2018-03-27T17:13:44.658Z,11.64
2018-03-27T17:15:46.414Z,11.41
2018-03-27T17:17:48.087Z,11.50
2018-03-27T17:19:50.164Z,11.43
2018-03-27T17:21:52.222Z,11.49
2018-03-27T17:23:54.183Z,11.41
2018-03-27T17:25:55.652Z,11.44
2018-03-27T17:27:57.935Z,11.29
2018-03-27T17:29:59.589Z,11.38
2018-03-27T17:32:02.434Z,11.39
2018-03-27T17:34:04.016Z,11.34
2018-03-27T17:36:05.688Z,11.36
2018-03-27T17:38:07.458Z,11.29
2018-03-27T17:40:09.118Z,11.31
2018-03-27T17:42:10.996Z,11.31
2018-03-27T17:44:12.900Z,11.24
2018-03-27T17:46:14.804Z,11.34
2018-03-27T17:48:16.369Z,11.17
2018-03-27T17:50:17.859Z,11.17
2018-03-27T17:52:19.325Z,11.17
2018-03-27T17:54:20.820Z,11.20
2018-03-27T17:56:22.524Z,11.16
2018-03-27T17:58:24.195Z,10.98
2018-03-27T18:00:25.743Z,10.92
2018-03-27T18:02:27.280Z,10.80
2018-03-27T18:04:28.879Z,10.81
2018-03-27T18:06:30.620Z,10.83
2018-03-27T18:08:32.357Z,10.84
2018-03-27T18:10:33.855Z,10.94
2018-03-27T18:12:35.366Z,10.84
2018-03-27T18:14:36.843Z,10.81
2018-03-27T18:16:38.534Z,10.88
2018-03-27T18:18:40.223Z,10.86
2018-03-27T18:20:44.644Z,10.84
2018-03-27T18:22:46.552Z,10.84
2018-03-27T18:24:48.032Z,10.86
2018-03-27T18:26:50.220Z,10.83
2018-03-27T18:28:51.944Z,10.88
2018-03-27T18:30:53.695Z,10.78
2018-03-27T18:32:55.394Z,10.91
2018-03-27T18:34:56.849Z,10.89
2018-03-27T18:36:58.324Z,10.91
2018-03-27T18:39:00.104Z,10.81
2018-03-27T18:41:01.805Z,10.86
2018-03-27T18:43:03.739Z,10.77
2018-03-27T18:45:05.715Z,10.63
2018-03-27T18:47:07.559Z,10.70
2018-03-27T18:49:09.205Z,10.76
2018-03-27T18:51:10.615Z,10.73
2018-03-27T18:53:12.280Z,10.65
2018-03-27T18:55:13.998Z,10.56
2018-03-27T18:57:15.430Z,10.44
2018-03-27T18:59:17.318Z,10.34
2018-03-27T19:01:19.103Z,10.07
2018-03-27T19:03:20.597Z,9.99
2018-03-27T19:05:22.058Z,9.91
2018-03-27T19:07:23.536Z,9.97
2018-03-27T19:09:25.057Z,9.96
2018-03-27T19:11:26.683Z,10.15
2018-03-27T19:13:28.332Z,10.10
2018-03-27T19:15:29.991Z,10.22
2018-03-27T19:17:31.766Z,10.18
2018-03-27T19:19:33.669Z,10.19
2018-03-27T19:21:35.160Z,10.09
2018-03-27T19:23:36.608Z,10.01
2018-03-27T19:25:38.024Z,10.15
2018-03-27T19:27:39.493Z,10.10
2018-03-27T19:29:40.948Z,10.10
2018-03-27T19:31:42.743Z,10.14
2018-03-27T19:33:44.406Z,10.12
2018-03-27T19:35:46.203Z,10.19
2018-03-27T19:37:47.780Z,10.21
2018-03-27T19:39:49.248Z,10.26
2018-03-27T19:41:50.915Z,10.21
2018-03-27T19:43:52.538Z,10.17
2018-03-27T19:45:54.036Z,9.86
2018-03-27T19:47:55.730Z,9.89
2018-03-27T19:49:57.338Z,9.91
2018-03-27T19:51:59.136Z,9.89
2018-03-27T19:54:00.785Z,9.94
2018-03-27T19:56:02.525Z,10.00
2018-03-27T19:58:04.258Z,9.71
2018-03-27T20:00:05.854Z,9.73
2018-03-27T20:02:07.530Z,9.67
2018-03-27T20:04:08.968Z,9.58
2018-03-27T20:06:10.455Z,9.66
2018-03-27T20:08:11.954Z,9.67
2018-03-27T20:10:13.615Z,9.73
2018-03-27T20:12:15.345Z,9.75
2018-03-27T20:14:16.770Z,9.71
2018-03-27T20:16:18.626Z,9.68
2018-03-27T20:18:20.301Z,9.89
2018-03-27T20:20:22.040Z,9.89
2018-03-27T20:22:23.765Z,9.79
2018-03-27T20:24:25.196Z,9.86
2018-03-27T20:26:26.916Z,9.93
2018-03-27T20:28:28.536Z,9.94
2018-03-27T20:30:30.168Z,9.91
2018-03-27T20:32:31.954Z,9.94
2018-03-27T20:34:33.598Z,9.94
2018-03-27T20:36:35.218Z,9.96
2018-03-27T20:38:36.690Z,9.91
2018-03-27T20:40:38.143Z,9.91
2018-03-27T20:42:39.867Z,9.94
2018-03-27T20:44:41.527Z,9.97
2018-03-27T20:46:43.354Z,10.03
2018-03-27T20:48:45.185Z,10.04
2018-03-27T20:50:47.002Z,10.09
2018-03-27T20:52:48.930Z,10.09
2018-03-27T20:54:50.724Z,9.91
2018-03-27T20:56:52.135Z,9.91
2018-03-27T20:58:53.631Z,9.79
2018-03-27T21:00:55.139Z,9.82
2018-03-27T21:02:56.706Z,9.71
2018-03-27T21:04:58.503Z,9.75
2018-03-27T21:06:59.988Z,9.76
2018-03-27T21:09:01.484Z,9.71
2018-03-27T21:11:03.035Z,9.73
2018-03-27T21:13:04.584Z,9.70
2018-03-27T21:15:06.274Z,9.70
2018-03-27T21:17:08.150Z,9.75
2018-03-27T21:19:09.791Z,9.89
2018-03-27T21:21:11.353Z,9.85
2018-03-27T21:23:13.054Z,9.94
2018-03-27T21:25:14.526Z,9.96
2018-03-27T21:27:16.053Z,9.94
2018-03-27T21:29:17.570Z,9.85
2018-03-27T21:31:18.982Z,9.94
2018-03-27T21:33:20.442Z,9.81
2018-03-27T21:35:21.935Z,9.58
2018-03-27T21:37:23.445Z,9.67
2018-03-27T21:39:24.903Z,9.78
2018-03-27T21:41:26.329Z,9.70
2018-03-27T21:43:27.741Z,9.56
2018-03-27T21:45:29.158Z,9.58
2018-03-27T21:47:30.569Z,9.71
2018-03-27T21:49:31.981Z,9.70
2018-03-27T21:51:33.394Z,9.61
2018-03-27T21:53:34.804Z,9.76
2018-03-27T21:55:36.222Z,9.73
2018-03-27T21:57:37.636Z,9.75
2018-03-27T21:59:39.046Z,9.68
2018-03-27T22:01:40.457Z,9.75
2018-03-27T22:03:41.870Z,9.70
2018-03-27T22:05:43.351Z,9.61
2018-03-27T22:07:44.839Z,9.61
2018-03-27T22:09:46.546Z,9.64
2018-03-27T22:11:48.276Z,9.63
2018-03-27T22:13:49.960Z,9.53
2018-03-27T22:15:52.630Z,9.60
2018-03-27T22:17:54.330Z,9.70
2018-03-27T22:19:55.782Z,9.83
2018-03-27T22:21:57.250Z,9.94
2018-03-27T22:23:58.663Z,9.99
2018-03-27T22:26:00.086Z,9.96
2018-03-27T22:28:01.499Z,10.01
2018-03-27T22:30:02.912Z,10.14
2018-03-27T22:32:04.323Z,10.07
2018-03-27T22:34:05.742Z,10.10
2018-03-27T22:36:07.156Z,10.12
2018-03-27T22:38:08.570Z,10.12
2018-03-27T22:40:09.989Z,10.12
2018-03-27T22:42:11.399Z,10.15
2018-03-27T22:44:12.820Z,10.12
2018-03-27T22:46:14.231Z,10.17
2018-03-27T22:48:15.647Z,10.19
2018-03-27T22:50:17.063Z,10.12
2018-03-27T22:52:18.475Z,10.14
2018-03-27T22:54:19.891Z,10.00
2018-03-27T22:56:21.303Z,10.06
2018-03-27T22:58:22.718Z,10.07
2018-03-27T23:00:24.135Z,10.01
2018-03-27T23:02:25.552Z,10.00
2018-03-27T23:04:26.960Z,9.93
2018-03-27T23:06:28.373Z,9.91
2018-03-27T23:08:29.789Z,9.99
2018-03-27T23:10:31.200Z,10.01
2018-03-27T23:12:32.608Z,10.10
2018-03-27T23:14:34.027Z,10.04
2018-03-27T23:16:35.433Z,9.82
2018-03-27T23:18:36.868Z,9.76
2018-03-27T23:20:38.277Z,9.76
2018-03-27T23:22:39.686Z,9.85
2018-03-27T23:24:41.106Z,9.96
2018-03-27T23:26:42.520Z,9.99
2018-03-27T23:28:43.931Z,9.97
2018-03-27T23:30:45.345Z,10.12
2018-03-27T23:32:46.801Z,10.10
2018-03-27T23:34:48.213Z,10.17
2018-03-27T23:36:49.697Z,10.04
2018-03-27T23:38:51.175Z,10.04
2018-03-27T23:40:52.655Z,9.99
2018-03-27T23:42:54.091Z,9.96
2018-03-27T23:44:55.700Z,9.96
2018-03-27T23:46:57.097Z,9.93
2018-03-27T23:48:58.580Z,10.00
2018-03-27T23:50:59.994Z,10.01
2018-03-27T23:53:01.408Z,9.97
2018-03-27T23:55:02.825Z,9.91
2018-03-27T23:57:04.236Z,9.96
2018-03-27T23:59:05.690Z,9.97
